createdAt,value
2019-05-20T00:01:07.052Z,4.67
2019-05-20T00:06:12.287Z,6.07
2019-05-20T00:11:17.207Z,5.73
2019-05-20T00:16:22.314Z,6.13
2019-05-20T00:21:27.262Z,4.73
2019-05-20T00:26:32.287Z,8.23
2019-05-20T00:31:37.341Z,5.77
2019-05-20T00:36:42.499Z,6.50
2019-05-20T00:41:47.655Z,6.53
2019-05-20T00:46:52.712Z,7.03
2019-05-20T00:51:57.808Z,6.43
2019-05-20T00:57:02.803Z,7.97
2019-05-20T01:02:07.852Z,6.87
2019-05-20T01:07:12.868Z,5.13
2019-05-20T01:12:17.842Z,5.13
2019-05-20T01:17:22.923Z,6.13
2019-05-20T01:22:27.963Z,6.27
2019-05-20T01:27:33.008Z,6.63
2019-05-20T01:32:38.093Z,6.47
2019-05-20T01:37:44.051Z,7.37
2019-05-20T01:42:49.175Z,5.57
2019-05-20T01:47:54.283Z,7.93
2019-05-20T01:52:59.335Z,8.37
2019-05-20T01:58:04.387Z,7.03
2019-05-20T02:03:09.679Z,10.10
2019-05-20T02:08:14.735Z,9.83
2019-05-20T02:13:19.847Z,6.60
2019-05-20T02:18:25.151Z,6.87
2019-05-20T02:23:30.337Z,6.57
2019-05-20T02:28:37.083Z,8.43
2019-05-20T02:33:51.681Z,8.53
2019-05-20T02:38:48.733Z,7.13
2019-05-20T02:43:53.819Z,8.37
2019-05-20T02:48:58.848Z,7.27
2019-05-20T02:54:03.975Z,8.37
2019-05-20T02:59:09.069Z,6.43
2019-05-20T03:04:14.198Z,8.87
2019-05-20T03:09:19.233Z,8.10
2019-05-20T03:14:24.357Z,12.97
2019-05-20T03:19:29.475Z,8.00
2019-05-20T03:24:34.603Z,10.10
2019-05-20T03:29:40.614Z,7.20
2019-05-20T03:34:57.062Z,10.30
2019-05-20T03:39:52.280Z,10.10
2019-05-20T03:44:57.259Z,6.83
2019-05-20T03:50:02.364Z,8.07
2019-05-20T03:55:08.874Z,9.87
2019-05-20T04:00:13.957Z,8.70
2019-05-20T04:05:18.976Z,8.40
2019-05-20T04:10:23.992Z,10.60
2019-05-20T04:15:29.013Z,9.33
2019-05-20T04:20:34.070Z,13.17
2019-05-20T04:25:39.031Z,10.80
2019-05-20T04:30:44.134Z,13.83
2019-05-20T04:35:49.993Z,13.37
2019-05-20T04:40:55.071Z,10.57
2019-05-20T04:46:00.681Z,15.30
2019-05-20T04:51:05.776Z,13.20
2019-05-20T04:56:10.807Z,18.57
2019-05-20T05:01:17.024Z,16.93
2019-05-20T05:06:22.252Z,19.67
2019-05-20T05:11:27.355Z,22.50
2019-05-20T05:16:32.476Z,21.87
2019-05-20T05:21:37.608Z,21.13
2019-05-20T05:26:42.700Z,28.03
2019-05-20T05:31:47.731Z,30.63
2019-05-20T05:36:53.055Z,28.67
2019-05-20T05:41:58.115Z,17.37
2019-05-20T05:47:03.135Z,30.63
2019-05-20T05:52:09.300Z,30.53
2019-05-20T05:57:14.424Z,38.93
2019-05-20T06:02:19.557Z,29.43
2019-05-20T06:07:24.518Z,34.43
2019-05-20T06:12:29.574Z,30.20
2019-05-20T06:17:34.556Z,27.77
2019-05-20T06:22:39.595Z,32.40
2019-05-20T06:27:44.710Z,30.87
2019-05-20T06:32:49.735Z,28.37
2019-05-20T06:37:59.498Z,32.73
2019-05-20T06:43:04.627Z,27.13
2019-05-20T06:48:09.631Z,29.37
2019-05-20T06:53:14.655Z,26.40
2019-05-20T06:58:19.778Z,28.63
2019-05-20T07:03:24.859Z,25.93
2019-05-20T07:08:29.990Z,28.33
2019-05-20T07:13:34.931Z,25.67
2019-05-20T07:18:39.992Z,25.87
2019-05-20T07:23:45.096Z,27.67
2019-05-20T07:28:50.146Z,25.33
2019-05-20T07:33:55.268Z,25.53
2019-05-20T07:39:00.540Z,29.97
2019-05-20T07:44:07.270Z,30.47
2019-05-20T07:49:12.612Z,30.27
2019-05-20T07:54:19.186Z,28.90
2019-05-20T07:59:26.135Z,25.30
2019-05-20T08:04:31.298Z,29.67
2019-05-20T08:09:44.631Z,28.40
2019-05-20T08:14:44.147Z,21.57
2019-05-20T08:19:49.239Z,22.23
2019-05-20T08:24:54.444Z,24.20
2019-05-20T08:29:59.509Z,28.17
2019-05-20T08:35:06.452Z,20.27
2019-05-20T08:40:11.755Z,23.43
2019-05-20T08:45:17.050Z,23.37
2019-05-20T08:50:22.141Z,22.53
2019-05-20T08:55:27.248Z,20.43
2019-05-20T09:00:32.321Z,21.50
2019-05-20T09:05:37.434Z,19.07
2019-05-20T09:10:43.494Z,19.17
2019-05-20T09:15:53.839Z,19.05
2019-05-20T09:20:58.894Z,19.70
2019-05-20T09:26:04.371Z,17.10
2019-05-20T09:31:09.542Z,17.50
2019-05-20T09:36:14.686Z,16.40
2019-05-20T09:41:19.839Z,16.73
2019-05-20T09:46:24.902Z,15.50
2019-05-20T09:51:29.887Z,15.08
2019-05-20T09:56:35.061Z,16.15
2019-05-20T10:01:40.534Z,15.50
2019-05-20T10:06:46.602Z,15.53
2019-05-20T10:11:51.659Z,15.83
2019-05-20T10:16:56.723Z,15.38
2019-05-20T10:22:01.780Z,16.55
2019-05-20T10:27:06.980Z,14.45
2019-05-20T10:32:12.048Z,15.80
2019-05-20T10:37:17.075Z,14.40
2019-05-20T10:42:22.715Z,17.30
2019-05-20T10:47:27.946Z,14.87
2019-05-20T10:52:33.082Z,17.02
2019-05-20T10:57:38.205Z,16.97
2019-05-20T11:02:43.348Z,17.02
2019-05-20T11:07:48.493Z,18.35
2019-05-20T11:12:53.496Z,18.60
2019-05-20T11:17:58.596Z,17.23
2019-05-20T11:23:03.659Z,16.93
2019-05-20T11:28:11.826Z,15.05
2019-05-20T11:33:15.447Z,15.38
2019-05-20T11:38:20.471Z,17.15
2019-05-20T11:43:25.431Z,16.35
2019-05-20T11:48:30.437Z,17.35
2019-05-20T11:53:35.483Z,19.55
2019-05-20T11:58:40.627Z,18.48
2019-05-20T12:03:45.690Z,18.62
2019-05-20T12:08:50.652Z,18.80
2019-05-20T12:13:55.615Z,18.77
2019-05-20T12:19:00.669Z,16.42
2019-05-20T12:24:06.602Z,16.97
2019-05-20T12:29:11.663Z,16.48
2019-05-20T12:34:16.669Z,18.87
2019-05-20T12:39:21.815Z,18.20
2019-05-20T12:44:26.772Z,18.67
2019-05-20T12:49:31.872Z,18.80
2019-05-20T12:54:36.962Z,18.52
2019-05-20T12:59:43.094Z,17.32
2019-05-20T13:04:48.425Z,17.77
2019-05-20T13:09:53.487Z,17.48
2019-05-20T13:14:58.501Z,17.55
2019-05-20T13:20:03.596Z,17.60
2019-05-20T13:25:08.893Z,20.08
2019-05-20T13:30:14.363Z,18.52
2019-05-20T13:35:19.523Z,19.37
2019-05-20T13:40:24.588Z,17.42
2019-05-20T13:45:29.611Z,13.58
2019-05-20T13:50:34.931Z,17.92
2019-05-20T13:55:40.024Z,17.50
2019-05-20T14:00:45.108Z,15.68
2019-05-20T14:05:51.180Z,20.30
2019-05-20T14:11:04.488Z,16.35
2019-05-20T14:16:02.996Z,14.85
2019-05-20T14:21:08.154Z,16.05
2019-05-20T14:26:13.353Z,16.20
2019-05-20T14:31:18.325Z,14.45
2019-05-20T14:36:38.457Z,14.35
2019-05-20T14:41:31.083Z,11.35
2019-05-20T14:46:36.085Z,8.85
2019-05-20T14:51:41.304Z,5.97
2019-05-20T14:56:46.287Z,5.20
2019-05-20T15:01:51.401Z,5.22
2019-05-20T15:06:56.483Z,3.77
2019-05-20T15:12:01.518Z,3.60
2019-05-20T15:17:06.639Z,3.35
2019-05-20T15:22:11.584Z,2.52
2019-05-20T15:27:16.621Z,2.35
2019-05-20T15:32:21.810Z,2.62
2019-05-20T15:37:26.999Z,1.42
2019-05-20T15:42:32.195Z,0.98
2019-05-20T15:52:43.837Z,1.40
2019-05-20T15:57:48.912Z,1.42
2019-05-20T16:02:53.952Z,0.90
2019-05-20T16:07:59.004Z,1.47
2019-05-20T16:13:04.111Z,1.25
2019-05-20T16:18:09.165Z,1.22
2019-05-20T16:23:14.310Z,1.12
2019-05-20T16:28:19.477Z,1.27
2019-05-20T16:33:24.660Z,2.45
2019-05-20T16:38:29.763Z,1.77
2019-05-20T16:43:35.008Z,1.62
2019-05-20T16:48:40.179Z,1.35
2019-05-20T16:53:45.291Z,1.95
2019-05-20T16:58:50.283Z,1.40
2019-05-20T17:03:55.474Z,1.35
2019-05-20T17:09:00.455Z,1.30
2019-05-20T17:14:05.643Z,1.35
2019-05-20T17:19:10.619Z,1.42
2019-05-20T17:24:15.715Z,1.77
2019-05-20T17:29:21.129Z,1.87
2019-05-20T17:34:27.315Z,1.85
2019-05-20T17:39:32.506Z,1.70
2019-05-20T17:44:37.655Z,1.82
2019-05-20T17:49:42.950Z,2.20
2019-05-20T17:54:48.055Z,2.17
2019-05-20T17:59:53.175Z,2.20
2019-05-20T18:04:58.147Z,2.52
2019-05-20T18:10:04.767Z,2.40
2019-05-20T18:15:10.334Z,3.20
2019-05-20T18:20:15.586Z,2.45
2019-05-20T18:25:20.624Z,4.75
2019-05-20T18:30:25.739Z,6.33
2019-05-20T18:35:30.893Z,3.65
2019-05-20T18:40:35.981Z,3.47
2019-05-20T18:45:40.999Z,3.52
2019-05-20T18:50:46.103Z,3.00
2019-05-20T18:55:51.135Z,3.12
2019-05-20T19:00:56.284Z,3.33
2019-05-20T19:06:01.234Z,3.65
2019-05-20T19:11:06.486Z,3.65
2019-05-20T19:16:11.441Z,3.42
2019-05-20T19:21:16.611Z,3.50
2019-05-20T19:26:25.084Z,3.63
2019-05-20T19:31:28.332Z,3.93
2019-05-20T19:36:33.348Z,4.30
2019-05-20T19:41:38.458Z,3.60
2019-05-20T19:46:43.563Z,4.23
2019-05-20T19:51:48.679Z,4.40
2019-05-20T19:56:53.871Z,4.47
2019-05-20T20:01:58.918Z,4.20
2019-05-20T20:07:04.549Z,4.27
2019-05-20T20:12:09.583Z,4.47
2019-05-20T20:17:15.627Z,4.87
2019-05-20T20:22:20.628Z,4.73
2019-05-20T20:27:25.753Z,4.63
2019-05-20T20:32:37.771Z,5.27
2019-05-20T20:37:37.480Z,4.47
2019-05-20T20:42:42.616Z,4.70
2019-05-20T20:47:47.627Z,5.60
2019-05-20T20:52:52.702Z,4.40
2019-05-20T20:57:57.711Z,5.70
2019-05-20T21:03:02.783Z,5.43
2019-05-20T21:08:07.999Z,6.73
2019-05-20T21:13:12.984Z,5.80
2019-05-20T21:18:18.012Z,6.30
2019-05-20T21:23:23.079Z,6.40
2019-05-20T21:28:28.239Z,5.57
2019-05-20T21:33:34.255Z,6.20
2019-05-20T21:38:39.211Z,5.50
2019-05-20T21:43:44.306Z,4.63
2019-05-20T21:48:49.275Z,4.43
2019-05-20T21:53:54.314Z,4.83
2019-05-20T21:58:59.290Z,4.50
2019-05-20T22:04:04.411Z,4.60
2019-05-20T22:09:09.596Z,5.70
2019-05-20T22:14:14.671Z,5.50
2019-05-20T22:19:19.774Z,4.80
2019-05-20T22:24:24.844Z,6.00
2019-05-20T22:29:29.791Z,5.43
2019-05-20T22:34:34.796Z,4.23
2019-05-20T22:39:39.768Z,4.83
2019-05-20T22:44:44.944Z,4.50
2019-05-20T22:49:49.918Z,4.63
2019-05-20T22:54:54.968Z,3.63
2019-05-20T22:59:59.975Z,4.37
2019-05-20T23:05:06.282Z,4.10
2019-05-20T23:10:11.541Z,5.03
2019-05-20T23:15:16.664Z,4.80
2019-05-20T23:20:21.650Z,4.73
2019-05-20T23:25:26.683Z,4.90
2019-05-20T23:30:31.767Z,6.00
2019-05-20T23:35:36.852Z,5.40
2019-05-20T23:40:42.955Z,4.17
2019-05-20T23:45:48.010Z,4.40
2019-05-20T23:50:53.021Z,4.80
2019-05-20T23:55:58.033Z,4.60
